sensor_id;sensor_type;location;lat;lon;timestamp;P1;durP1;ratioP1;P2;durP2;ratioP2
57395;SDS011;43222;52.912;6.940;2024-01-30T00:02:00;27.77;;;21.48;;
57395;SDS011;43222;52.912;6.940;2024-01-30T00:04:26;29.23;;;21.13;;
57395;SDS011;43222;52.912;6.940;2024-01-30T00:06:52;25.42;;;20.45;;
57395;SDS011;43222;52.912;6.940;2024-01-30T00:09:18;28.02;;;20.15;;
57395;SDS011;43222;52.912;6.940;2024-01-30T00:11:44;27.40;;;22.15;;
57395;SDS011;43222;52.912;6.940;2024-01-30T00:14:10;28.88;;;19.60;;
57395;SDS011;43222;52.912;6.940;2024-01-30T00:16:37;28.13;;;21.10;;
57395;SDS011;43222;52.912;6.940;2024-01-30T00:19:03;27.52;;;20.67;;
57395;SDS011;43222;52.912;6.940;2024-01-30T00:21:29;28.65;;;19.75;;
57395;SDS011;43222;52.912;6.940;2024-01-30T00:23:55;27.48;;;19.58;;
57395;SDS011;43222;52.912;6.940;2024-01-30T00:26:21;25.58;;;19.67;;
57395;SDS011;43222;52.912;6.940;2024-01-30T00:28:47;27.48;;;20.00;;
57395;SDS011;43222;52.912;6.940;2024-01-30T00:31:13;26.83;;;18.77;;
57395;SDS011;43222;52.912;6.940;2024-01-30T00:33:39;26.35;;;19.60;;
57395;SDS011;43222;52.912;6.940;2024-01-30T00:36:05;26.35;;;19.70;;
57395;SDS011;43222;52.912;6.940;2024-01-30T00:38:32;27.75;;;18.75;;
57395;SDS011;43222;52.912;6.940;2024-01-30T00:40:58;28.33;;;18.73;;
57395;SDS011;43222;52.912;6.940;2024-01-30T00:43:24;24.92;;;19.20;;
57395;SDS011;43222;52.912;6.940;2024-01-30T00:45:50;27.80;;;18.80;;
57395;SDS011;43222;52.912;6.940;2024-01-30T00:48:19;23.95;;;19.33;;
57395;SDS011;43222;52.912;6.940;2024-01-30T00:50:45;28.17;;;19.83;;
57395;SDS011;43222;52.912;6.940;2024-01-30T00:53:11;30.67;;;20.13;;
57395;SDS011;43222;52.912;6.940;2024-01-30T00:55:37;26.45;;;18.92;;
57395;SDS011;43222;52.912;6.940;2024-01-30T00:58:04;25.02;;;19.15;;
57395;SDS011;43222;52.912;6.940;2024-01-30T01:00:30;26.05;;;19.17;;
57395;SDS011;43222;52.912;6.940;2024-01-30T01:02:57;24.58;;;18.65;;
57395;SDS011;43222;52.912;6.940;2024-01-30T01:05:23;24.90;;;19.30;;
57395;SDS011;43222;52.912;6.940;2024-01-30T01:07:49;24.27;;;18.92;;
57395;SDS011;43222;52.912;6.940;2024-01-30T01:10:16;24.63;;;17.73;;
57395;SDS011;43222;52.912;6.940;2024-01-30T01:12:43;27.05;;;18.20;;
57395;SDS011;43222;52.912;6.940;2024-01-30T01:15:09;26.85;;;18.63;;
57395;SDS011;43222;52.912;6.940;2024-01-30T01:17:36;29.38;;;18.90;;
57395;SDS011;43222;52.912;6.940;2024-01-30T01:20:02;29.63;;;18.77;;
57395;SDS011;43222;52.912;6.940;2024-01-30T01:22:30;26.17;;;18.48;;
57395;SDS011;43222;52.912;6.940;2024-01-30T01:24:56;25.52;;;18.63;;
57395;SDS011;43222;52.912;6.940;2024-01-30T01:27:22;25.58;;;18.77;;
57395;SDS011;43222;52.912;6.940;2024-01-30T01:29:48;27.67;;;18.15;;
57395;SDS011;43222;52.912;6.940;2024-01-30T01:32:14;27.83;;;18.25;;
57395;SDS011;43222;52.912;6.940;2024-01-30T01:34:41;27.20;;;18.85;;
57395;SDS011;43222;52.912;6.940;2024-01-30T01:37:07;22.15;;;17.05;;
57395;SDS011;43222;52.912;6.940;2024-01-30T01:39:33;26.85;;;17.80;;
57395;SDS011;43222;52.912;6.940;2024-01-30T01:41:59;24.67;;;17.40;;
57395;SDS011;43222;52.912;6.940;2024-01-30T01:44:26;22.15;;;17.50;;
57395;SDS011;43222;52.912;6.940;2024-01-30T01:46:54;23.50;;;17.38;;
57395;SDS011;43222;52.912;6.940;2024-01-30T01:49:20;22.60;;;17.52;;
57395;SDS011;43222;52.912;6.940;2024-01-30T01:51:47;25.02;;;17.70;;
57395;SDS011;43222;52.912;6.940;2024-01-30T01:54:14;26.15;;;17.65;;
57395;SDS011;43222;52.912;6.940;2024-01-30T01:56:40;29.08;;;17.42;;
57395;SDS011;43222;52.912;6.940;2024-01-30T01:59:07;24.25;;;17.38;;
57395;SDS011;43222;52.912;6.940;2024-01-30T02:01:34;23.00;;;17.35;;
57395;SDS011;43222;52.912;6.940;2024-01-30T02:04:00;26.27;;;19.10;;
57395;SDS011;43222;52.912;6.940;2024-01-30T02:06:26;26.88;;;18.65;;
57395;SDS011;43222;52.912;6.940;2024-01-30T02:08:53;28.50;;;18.45;;
57395;SDS011;43222;52.912;6.940;2024-01-30T02:11:19;24.05;;;18.23;;
57395;SDS011;43222;52.912;6.940;2024-01-30T02:13:46;25.77;;;17.67;;
57395;SDS011;43222;52.912;6.940;2024-01-30T02:16:12;27.10;;;18.73;;
57395;SDS011;43222;52.912;6.940;2024-01-30T02:18:38;26.42;;;18.67;;
57395;SDS011;43222;52.912;6.940;2024-01-30T02:21:08;25.98;;;18.52;;
57395;SDS011;43222;52.912;6.940;2024-01-30T02:23:34;30.90;;;18.95;;
57395;SDS011;43222;52.912;6.940;2024-01-30T02:26:00;26.67;;;18.20;;
57395;SDS011;43222;52.912;6.940;2024-01-30T02:28:26;25.45;;;18.45;;
57395;SDS011;43222;52.912;6.940;2024-01-30T02:30:52;29.70;;;18.92;;
57395;SDS011;43222;52.912;6.940;2024-01-30T02:33:19;27.25;;;18.52;;
57395;SDS011;43222;52.912;6.940;2024-01-30T02:35:47;27.17;;;18.48;;
57395;SDS011;43222;52.912;6.940;2024-01-30T02:38:13;26.85;;;18.40;;
57395;SDS011;43222;52.912;6.940;2024-01-30T02:40:39;26.13;;;19.08;;
57395;SDS011;43222;52.912;6.940;2024-01-30T02:43:05;25.23;;;17.98;;
57395;SDS011;43222;52.912;6.940;2024-01-30T02:45:31;29.33;;;18.60;;
57395;SDS011;43222;52.912;6.940;2024-01-30T02:47:57;26.50;;;18.15;;
57395;SDS011;43222;52.912;6.940;2024-01-30T02:50:23;27.08;;;18.40;;
57395;SDS011;43222;52.912;6.940;2024-01-30T02:52:49;28.15;;;18.40;;
57395;SDS011;43222;52.912;6.940;2024-01-30T02:55:15;27.20;;;19.08;;
57395;SDS011;43222;52.912;6.940;2024-01-30T02:57:45;23.02;;;18.67;;
57395;SDS011;43222;52.912;6.940;2024-01-30T03:00:11;26.23;;;18.73;;
57395;SDS011;43222;52.912;6.940;2024-01-30T03:02:37;26.05;;;18.48;;
57395;SDS011;43222;52.912;6.940;2024-01-30T03:05:05;26.48;;;18.77;;
57395;SDS011;43222;52.912;6.940;2024-01-30T03:07:31;25.33;;;18.45;;
57395;SDS011;43222;52.912;6.940;2024-01-30T03:09:57;26.27;;;18.08;;
57395;SDS011;43222;52.912;6.940;2024-01-30T03:12:23;22.65;;;18.05;;
57395;SDS011;43222;52.912;6.940;2024-01-30T03:14:49;28.75;;;18.35;;
57395;SDS011;43222;52.912;6.940;2024-01-30T03:17:15;26.35;;;18.58;;
57395;SDS011;43222;52.912;6.940;2024-01-30T03:19:41;25.08;;;18.60;;
57395;SDS011;43222;52.912;6.940;2024-01-30T03:22:07;27.63;;;19.58;;
57395;SDS011;43222;52.912;6.940;2024-01-30T03:24:33;28.95;;;19.77;;
57395;SDS011;43222;52.912;6.940;2024-01-30T03:26:59;26.60;;;20.40;;
57395;SDS011;43222;52.912;6.940;2024-01-30T03:29:26;28.10;;;19.42;;
57395;SDS011;43222;52.912;6.940;2024-01-30T03:31:52;27.48;;;20.45;;
57395;SDS011;43222;52.912;6.940;2024-01-30T03:34:18;29.60;;;19.38;;
57395;SDS011;43222;52.912;6.940;2024-01-30T03:36:44;30.05;;;19.60;;
57395;SDS011;43222;52.912;6.940;2024-01-30T03:39:10;30.50;;;19.65;;
57395;SDS011;43222;52.912;6.940;2024-01-30T03:41:37;30.63;;;20.00;;
57395;SDS011;43222;52.912;6.940;2024-01-30T03:44:03;31.13;;;20.27;;
57395;SDS011;43222;52.912;6.940;2024-01-30T03:46:29;29.25;;;18.90;;
57395;SDS011;43222;52.912;6.940;2024-01-30T03:48:55;29.65;;;20.10;;
57395;SDS011;43222;52.912;6.940;2024-01-30T03:51:21;27.02;;;20.67;;
57395;SDS011;43222;52.912;6.940;2024-01-30T03:53:47;27.50;;;20.80;;
57395;SDS011;43222;52.912;6.940;2024-01-30T03:56:13;31.83;;;20.83;;
57395;SDS011;43222;52.912;6.940;2024-01-30T03:58:39;28.02;;;20.48;;
57395;SDS011;43222;52.912;6.940;2024-01-30T04:01:06;32.15;;;20.83;;
57395;SDS011;43222;52.912;6.940;2024-01-30T04:03:32;28.05;;;20.45;;
57395;SDS011;43222;52.912;6.940;2024-01-30T04:05:58;28.17;;;21.65;;
57395;SDS011;43222;52.912;6.940;2024-01-30T04:08:24;30.35;;;21.30;;
57395;SDS011;43222;52.912;6.940;2024-01-30T04:10:50;27.65;;;21.88;;
57395;SDS011;43222;52.912;6.940;2024-01-30T04:13:16;37.13;;;22.15;;
57395;SDS011;43222;52.912;6.940;2024-01-30T04:15:42;30.38;;;21.48;;
57395;SDS011;43222;52.912;6.940;2024-01-30T04:18:08;31.13;;;20.80;;
57395;SDS011;43222;52.912;6.940;2024-01-30T04:20:34;30.38;;;20.92;;
57395;SDS011;43222;52.912;6.940;2024-01-30T04:23:00;29.90;;;20.75;;
57395;SDS011;43222;52.912;6.940;2024-01-30T04:25:27;29.40;;;21.98;;
57395;SDS011;43222;52.912;6.940;2024-01-30T04:27:53;29.75;;;21.70;;
57395;SDS011;43222;52.912;6.940;2024-01-30T04:30:19;30.65;;;21.45;;
57395;SDS011;43222;52.912;6.940;2024-01-30T04:32:45;32.13;;;21.23;;
57395;SDS011;43222;52.912;6.940;2024-01-30T04:35:11;28.45;;;20.45;;
57395;SDS011;43222;52.912;6.940;2024-01-30T04:37:37;31.40;;;21.77;;
57395;SDS011;43222;52.912;6.940;2024-01-30T04:40:03;29.15;;;21.83;;
57395;SDS011;43222;52.912;6.940;2024-01-30T04:42:30;29.45;;;21.35;;
57395;SDS011;43222;52.912;6.940;2024-01-30T04:44:56;29.27;;;21.13;;
57395;SDS011;43222;52.912;6.940;2024-01-30T04:47:22;29.00;;;21.58;;
57395;SDS011;43222;52.912;6.940;2024-01-30T04:49:48;32.13;;;22.40;;
57395;SDS011;43222;52.912;6.940;2024-01-30T04:52:15;34.58;;;22.35;;
57395;SDS011;43222;52.912;6.940;2024-01-30T04:54:41;32.97;;;22.70;;
57395;SDS011;43222;52.912;6.940;2024-01-30T04:57:07;31.80;;;22.33;;
57395;SDS011;43222;52.912;6.940;2024-01-30T04:59:36;26.85;;;20.52;;
57395;SDS011;43222;52.912;6.940;2024-01-30T05:02:02;27.77;;;21.85;;
57395;SDS011;43222;52.912;6.940;2024-01-30T05:04:29;30.25;;;21.77;;
57395;SDS011;43222;52.912;6.940;2024-01-30T05:06:55;32.20;;;23.10;;
57395;SDS011;43222;52.912;6.940;2024-01-30T05:09:21;29.75;;;22.45;;
57395;SDS011;43222;52.912;6.940;2024-01-30T05:11:47;29.80;;;22.20;;
57395;SDS011;43222;52.912;6.940;2024-01-30T05:14:13;31.70;;;22.75;;
57395;SDS011;43222;52.912;6.940;2024-01-30T05:16:40;31.90;;;22.45;;
57395;SDS011;43222;52.912;6.940;2024-01-30T05:19:08;32.85;;;21.85;;
57395;SDS011;43222;52.912;6.940;2024-01-30T05:21:34;27.42;;;20.50;;
57395;SDS011;43222;52.912;6.940;2024-01-30T05:24:00;30.17;;;22.25;;
57395;SDS011;43222;52.912;6.940;2024-01-30T05:26:26;35.17;;;21.92;;
57395;SDS011;43222;52.912;6.940;2024-01-30T05:28:52;34.35;;;23.33;;
57395;SDS011;43222;52.912;6.940;2024-01-30T05:31:18;31.95;;;22.48;;
57395;SDS011;43222;52.912;6.940;2024-01-30T05:33:45;31.42;;;22.77;;
57395;SDS011;43222;52.912;6.940;2024-01-30T05:36:13;32.80;;;22.33;;
57395;SDS011;43222;52.912;6.940;2024-01-30T05:38:40;31.80;;;21.63;;
57395;SDS011;43222;52.912;6.940;2024-01-30T05:41:06;35.03;;;22.45;;
57395;SDS011;43222;52.912;6.940;2024-01-30T05:43:32;31.33;;;22.15;;
57395;SDS011;43222;52.912;6.940;2024-01-30T05:45:58;30.10;;;22.63;;
57395;SDS011;43222;52.912;6.940;2024-01-30T05:48:24;33.45;;;23.27;;
57395;SDS011;43222;52.912;6.940;2024-01-30T05:50:50;32.78;;;22.90;;
57395;SDS011;43222;52.912;6.940;2024-01-30T05:53:16;30.75;;;22.38;;
57395;SDS011;43222;52.912;6.940;2024-01-30T05:55:42;31.88;;;23.10;;
57395;SDS011;43222;52.912;6.940;2024-01-30T05:58:08;30.00;;;22.08;;
57395;SDS011;43222;52.912;6.940;2024-01-30T06:00:34;28.08;;;21.67;;
57395;SDS011;43222;52.912;6.940;2024-01-30T06:03:00;29.33;;;22.10;;
57395;SDS011;43222;52.912;6.940;2024-01-30T06:05:27;28.80;;;21.20;;
57395;SDS011;43222;52.912;6.940;2024-01-30T06:07:53;27.55;;;22.35;;
57395;SDS011;43222;52.912;6.940;2024-01-30T06:10:19;28.42;;;20.73;;
57395;SDS011;43222;52.912;6.940;2024-01-30T06:12:45;28.65;;;21.67;;
57395;SDS011;43222;52.912;6.940;2024-01-30T06:15:11;30.40;;;21.75;;
57395;SDS011;43222;52.912;6.940;2024-01-30T06:17:38;30.20;;;21.30;;
57395;SDS011;43222;52.912;6.940;2024-01-30T06:20:05;25.80;;;20.70;;
57395;SDS011;43222;52.912;6.940;2024-01-30T06:22:31;34.08;;;22.10;;
57395;SDS011;43222;52.912;6.940;2024-01-30T06:24:57;26.83;;;20.42;;
57395;SDS011;43222;52.912;6.940;2024-01-30T06:27:24;27.05;;;21.25;;
57395;SDS011;43222;52.912;6.940;2024-01-30T06:29:50;31.75;;;21.20;;
57395;SDS011;43222;52.912;6.940;2024-01-30T06:32:16;28.80;;;22.08;;
57395;SDS011;43222;52.912;6.940;2024-01-30T06:34:42;28.45;;;19.88;;
57395;SDS011;43222;52.912;6.940;2024-01-30T06:37:09;27.83;;;20.67;;
57395;SDS011;43222;52.912;6.940;2024-01-30T06:39:35;29.67;;;21.40;;
57395;SDS011;43222;52.912;6.940;2024-01-30T06:42:01;26.35;;;19.17;;
57395;SDS011;43222;52.912;6.940;2024-01-30T06:44:27;27.05;;;19.92;;
57395;SDS011;43222;52.912;6.940;2024-01-30T06:46:53;24.33;;;19.00;;
57395;SDS011;43222;52.912;6.940;2024-01-30T06:49:19;27.90;;;19.90;;
57395;SDS011;43222;52.912;6.940;2024-01-30T06:51:47;24.70;;;18.98;;
57395;SDS011;43222;52.912;6.940;2024-01-30T06:54:13;25.42;;;18.67;;
57395;SDS011;43222;52.912;6.940;2024-01-30T06:56:39;26.50;;;19.65;;
57395;SDS011;43222;52.912;6.940;2024-01-30T06:59:05;25.85;;;18.25;;
57395;SDS011;43222;52.912;6.940;2024-01-30T07:01:31;24.75;;;19.35;;
57395;SDS011;43222;52.912;6.940;2024-01-30T07:03:57;25.55;;;18.80;;
57395;SDS011;43222;52.912;6.940;2024-01-30T07:06:24;25.02;;;18.35;;
57395;SDS011;43222;52.912;6.940;2024-01-30T07:08:50;23.50;;;17.67;;
57395;SDS011;43222;52.912;6.940;2024-01-30T07:11:19;25.17;;;18.25;;
57395;SDS011;43222;52.912;6.940;2024-01-30T07:13:50;28.17;;;18.73;;
57395;SDS011;43222;52.912;6.940;2024-01-30T07:16:16;25.27;;;18.58;;
57395;SDS011;43222;52.912;6.940;2024-01-30T07:18:43;26.63;;;18.50;;
57395;SDS011;43222;52.912;6.940;2024-01-30T07:21:09;26.27;;;18.88;;
57395;SDS011;43222;52.912;6.940;2024-01-30T07:23:35;23.70;;;18.33;;
57395;SDS011;43222;52.912;6.940;2024-01-30T07:26:04;27.40;;;18.33;;
57395;SDS011;43222;52.912;6.940;2024-01-30T07:28:30;21.23;;;17.45;;
57395;SDS011;43222;52.912;6.940;2024-01-30T07:30:56;24.85;;;17.65;;
57395;SDS011;43222;52.912;6.940;2024-01-30T07:33:22;25.42;;;17.23;;
57395;SDS011;43222;52.912;6.940;2024-01-30T07:35:48;21.67;;;17.55;;
57395;SDS011;43222;52.912;6.940;2024-01-30T07:38:14;24.42;;;17.92;;
57395;SDS011;43222;52.912;6.940;2024-01-30T07:40:40;23.98;;;17.88;;
57395;SDS011;43222;52.912;6.940;2024-01-30T07:43:06;24.15;;;18.23;;
57395;SDS011;43222;52.912;6.940;2024-01-30T07:45:33;23.98;;;18.15;;
57395;SDS011;43222;52.912;6.940;2024-01-30T07:47:59;21.40;;;17.17;;
57395;SDS011;43222;52.912;6.940;2024-01-30T07:50:25;25.63;;;17.65;;
57395;SDS011;43222;52.912;6.940;2024-01-30T07:52:51;24.48;;;17.88;;
57395;SDS011;43222;52.912;6.940;2024-01-30T07:55:22;22.40;;;17.60;;
57395;SDS011;43222;52.912;6.940;2024-01-30T07:57:56;22.95;;;16.67;;
57395;SDS011;43222;52.912;6.940;2024-01-30T08:00:23;22.67;;;17.08;;
57395;SDS011;43222;52.912;6.940;2024-01-30T08:02:53;23.55;;;16.75;;
57395;SDS011;43222;52.912;6.940;2024-01-30T08:05:20;23.60;;;16.90;;
57395;SDS011;43222;52.912;6.940;2024-01-30T08:07:47;22.13;;;16.25;;
57395;SDS011;43222;52.912;6.940;2024-01-30T08:10:13;25.55;;;17.05;;
57395;SDS011;43222;52.912;6.940;2024-01-30T08:12:40;22.08;;;16.05;;
57395;SDS011;43222;52.912;6.940;2024-01-30T08:15:06;25.15;;;16.63;;
57395;SDS011;43222;52.912;6.940;2024-01-30T08:17:32;20.15;;;15.32;;
57395;SDS011;43222;52.912;6.940;2024-01-30T08:19:58;22.65;;;16.80;;
57395;SDS011;43222;52.912;6.940;2024-01-30T08:22:25;23.23;;;17.05;;
57395;SDS011;43222;52.912;6.940;2024-01-30T08:24:51;21.95;;;17.10;;
57395;SDS011;43222;52.912;6.940;2024-01-30T08:27:17;19.95;;;15.32;;
57395;SDS011;43222;52.912;6.940;2024-01-30T08:29:43;21.10;;;16.75;;
57395;SDS011;43222;52.912;6.940;2024-01-30T08:32:09;21.10;;;16.30;;
57395;SDS011;43222;52.912;6.940;2024-01-30T08:34:35;24.55;;;16.98;;
57395;SDS011;43222;52.912;6.940;2024-01-30T08:37:02;18.45;;;15.52;;
57395;SDS011;43222;52.912;6.940;2024-01-30T08:39:28;22.08;;;16.38;;
57395;SDS011;43222;52.912;6.940;2024-01-30T08:41:55;19.92;;;15.38;;
57395;SDS011;43222;52.912;6.940;2024-01-30T08:44:21;21.17;;;14.93;;
57395;SDS011;43222;52.912;6.940;2024-01-30T08:46:47;20.15;;;14.73;;
57395;SDS011;43222;52.912;6.940;2024-01-30T08:49:16;18.52;;;14.85;;
57395;SDS011;43222;52.912;6.940;2024-01-30T08:51:42;22.67;;;15.25;;
57395;SDS011;43222;52.912;6.940;2024-01-30T08:54:08;22.48;;;16.17;;
57395;SDS011;43222;52.912;6.940;2024-01-30T08:56:34;18.90;;;14.50;;
57395;SDS011;43222;52.912;6.940;2024-01-30T08:59:00;20.63;;;14.63;;
57395;SDS011;43222;52.912;6.940;2024-01-30T09:01:26;20.58;;;14.15;;
57395;SDS011;43222;52.912;6.940;2024-01-30T09:03:52;19.70;;;15.15;;
57395;SDS011;43222;52.912;6.940;2024-01-30T09:06:19;20.52;;;14.88;;
57395;SDS011;43222;52.912;6.940;2024-01-30T09:08:45;21.98;;;15.25;;
57395;SDS011;43222;52.912;6.940;2024-01-30T09:11:11;17.67;;;13.48;;
57395;SDS011;43222;52.912;6.940;2024-01-30T09:13:38;17.13;;;14.10;;
57395;SDS011;43222;52.912;6.940;2024-01-30T09:16:04;20.50;;;14.73;;
57395;SDS011;43222;52.912;6.940;2024-01-30T09:18:30;18.75;;;14.50;;
57395;SDS011;43222;52.912;6.940;2024-01-30T09:20:56;19.65;;;13.93;;
57395;SDS011;43222;52.912;6.940;2024-01-30T09:23:23;22.08;;;14.13;;
57395;SDS011;43222;52.912;6.940;2024-01-30T09:25:49;21.30;;;13.57;;
57395;SDS011;43222;52.912;6.940;2024-01-30T09:28:16;18.83;;;13.63;;
57395;SDS011;43222;52.912;6.940;2024-01-30T09:30:43;19.80;;;13.10;;
57395;SDS011;43222;52.912;6.940;2024-01-30T09:33:09;16.63;;;12.77;;
57395;SDS011;43222;52.912;6.940;2024-01-30T09:35:38;20.58;;;13.68;;
57395;SDS011;43222;52.912;6.940;2024-01-30T09:38:04;16.20;;;12.98;;
57395;SDS011;43222;52.912;6.940;2024-01-30T09:40:30;19.08;;;13.90;;
57395;SDS011;43222;52.912;6.940;2024-01-30T09:42:56;16.80;;;12.98;;
57395;SDS011;43222;52.912;6.940;2024-01-30T09:45:25;22.15;;;13.88;;
57395;SDS011;43222;52.912;6.940;2024-01-30T09:47:51;19.65;;;13.50;;
57395;SDS011;43222;52.912;6.940;2024-01-30T09:50:18;16.33;;;13.27;;
57395;SDS011;43222;52.912;6.940;2024-01-30T09:52:45;16.48;;;12.82;;
57395;SDS011;43222;52.912;6.940;2024-01-30T09:55:11;17.23;;;12.73;;
57395;SDS011;43222;52.912;6.940;2024-01-30T09:57:37;17.20;;;13.15;;
57395;SDS011;43222;52.912;6.940;2024-01-30T10:00:04;18.40;;;13.15;;
57395;SDS011;43222;52.912;6.940;2024-01-30T10:02:33;17.45;;;13.07;;
57395;SDS011;43222;52.912;6.940;2024-01-30T10:04:59;21.60;;;13.85;;
57395;SDS011;43222;52.912;6.940;2024-01-30T10:07:26;16.92;;;12.75;;
57395;SDS011;43222;52.912;6.940;2024-01-30T10:09:52;17.52;;;12.70;;
57395;SDS011;43222;52.912;6.940;2024-01-30T10:12:20;20.45;;;13.07;;
57395;SDS011;43222;52.912;6.940;2024-01-30T10:14:46;18.75;;;12.85;;
57395;SDS011;43222;52.912;6.940;2024-01-30T10:17:12;16.23;;;12.07;;
57395;SDS011;43222;52.912;6.940;2024-01-30T10:19:39;18.75;;;12.95;;
57395;SDS011;43222;52.912;6.940;2024-01-30T10:22:05;20.55;;;12.98;;
57395;SDS011;43222;52.912;6.940;2024-01-30T10:24:33;16.45;;;13.00;;
57395;SDS011;43222;52.912;6.940;2024-01-30T10:26:59;16.95;;;12.15;;
57395;SDS011;43222;52.912;6.940;2024-01-30T10:29:25;18.10;;;12.80;;
57395;SDS011;43222;52.912;6.940;2024-01-30T10:32:01;18.33;;;12.93;;
57395;SDS011;43222;52.912;6.940;2024-01-30T10:34:27;18.92;;;12.13;;
57395;SDS011;43222;52.912;6.940;2024-01-30T10:37:09;17.27;;;12.88;;
57395;SDS011;43222;52.912;6.940;2024-01-30T10:39:41;18.65;;;12.10;;
57395;SDS011;43222;52.912;6.940;2024-01-30T10:42:11;19.90;;;13.55;;
57395;SDS011;43222;52.912;6.940;2024-01-30T10:44:44;17.00;;;12.13;;
57395;SDS011;43222;52.912;6.940;2024-01-30T10:47:14;17.35;;;12.02;;
57395;SDS011;43222;52.912;6.940;2024-01-30T10:49:43;20.75;;;12.43;;
57395;SDS011;43222;52.912;6.940;2024-01-30T10:52:11;17.13;;;12.27;;
57395;SDS011;43222;52.912;6.940;2024-01-30T10:54:39;16.63;;;11.85;;
57395;SDS011;43222;52.912;6.940;2024-01-30T10:57:06;17.65;;;12.20;;
57395;SDS011;43222;52.912;6.940;2024-01-30T10:59:32;16.17;;;11.90;;
57395;SDS011;43222;52.912;6.940;2024-01-30T11:01:59;15.50;;;11.77;;
57395;SDS011;43222;52.912;6.940;2024-01-30T11:04:25;19.40;;;11.70;;
57395;SDS011;43222;52.912;6.940;2024-01-30T11:06:51;16.80;;;11.82;;
57395;SDS011;43222;52.912;6.940;2024-01-30T11:09:19;15.85;;;11.63;;
57395;SDS011;43222;52.912;6.940;2024-01-30T11:11:51;15.65;;;12.02;;
57395;SDS011;43222;52.912;6.940;2024-01-30T11:14:24;19.10;;;13.13;;
57395;SDS011;43222;52.912;6.940;2024-01-30T11:16:51;19.73;;;12.38;;
57395;SDS011;43222;52.912;6.940;2024-01-30T11:19:23;17.48;;;11.95;;
57395;SDS011;43222;52.912;6.940;2024-01-30T11:21:51;17.65;;;12.35;;
57395;SDS011;43222;52.912;6.940;2024-01-30T11:24:21;20.73;;;11.90;;
57395;SDS011;43222;52.912;6.940;2024-01-30T11:26:57;17.92;;;12.23;;
57395;SDS011;43222;52.912;6.940;2024-01-30T11:29:27;18.13;;;12.65;;
57395;SDS011;43222;52.912;6.940;2024-01-30T11:31:53;18.17;;;12.73;;
57395;SDS011;43222;52.912;6.940;2024-01-30T11:34:20;17.92;;;12.60;;
57395;SDS011;43222;52.912;6.940;2024-01-30T11:36:48;18.60;;;12.93;;
57395;SDS011;43222;52.912;6.940;2024-01-30T11:39:17;19.80;;;13.63;;
57395;SDS011;43222;52.912;6.940;2024-01-30T11:41:46;22.00;;;12.68;;
57395;SDS011;43222;52.912;6.940;2024-01-30T11:44:12;24.25;;;12.82;;
57395;SDS011;43222;52.912;6.940;2024-01-30T11:46:38;20.02;;;12.48;;
57395;SDS011;43222;52.912;6.940;2024-01-30T11:49:04;19.48;;;13.32;;
57395;SDS011;43222;52.912;6.940;2024-01-30T11:51:30;17.95;;;12.50;;
57395;SDS011;43222;52.912;6.940;2024-01-30T11:53:57;18.70;;;11.95;;
57395;SDS011;43222;52.912;6.940;2024-01-30T11:56:23;19.95;;;12.40;;
57395;SDS011;43222;52.912;6.940;2024-01-30T11:58:51;18.15;;;12.77;;
57395;SDS011;43222;52.912;6.940;2024-01-30T12:01:17;17.13;;;12.75;;
57395;SDS011;43222;52.912;6.940;2024-01-30T12:03:50;19.35;;;12.77;;
57395;SDS011;43222;52.912;6.940;2024-01-30T12:06:16;19.10;;;12.82;;
57395;SDS011;43222;52.912;6.940;2024-01-30T12:08:42;17.85;;;12.93;;
57395;SDS011;43222;52.912;6.940;2024-01-30T12:11:09;20.45;;;13.73;;
57395;SDS011;43222;52.912;6.940;2024-01-30T12:13:35;18.38;;;13.57;;
57395;SDS011;43222;52.912;6.940;2024-01-30T12:16:01;20.67;;;13.32;;
57395;SDS011;43222;52.912;6.940;2024-01-30T12:18:27;20.88;;;12.98;;
57395;SDS011;43222;52.912;6.940;2024-01-30T12:20:59;23.52;;;13.65;;
57395;SDS011;43222;52.912;6.940;2024-01-30T12:23:26;19.45;;;13.60;;
57395;SDS011;43222;52.912;6.940;2024-01-30T12:25:53;20.02;;;13.30;;
57395;SDS011;43222;52.912;6.940;2024-01-30T12:28:19;19.60;;;13.05;;
57395;SDS011;43222;52.912;6.940;2024-01-30T12:30:46;20.45;;;14.00;;
57395;SDS011;43222;52.912;6.940;2024-01-30T12:33:18;18.83;;;13.65;;
57395;SDS011;43222;52.912;6.940;2024-01-30T12:35:47;17.20;;;12.75;;
57395;SDS011;43222;52.912;6.940;2024-01-30T12:38:14;19.67;;;12.00;;
57395;SDS011;43222;52.912;6.940;2024-01-30T12:40:40;16.10;;;10.93;;
57395;SDS011;43222;52.912;6.940;2024-01-30T12:43:06;15.90;;;11.43;;
57395;SDS011;43222;52.912;6.940;2024-01-30T12:45:33;14.73;;;10.30;;
57395;SDS011;43222;52.912;6.940;2024-01-30T12:47:59;15.18;;;10.30;;
57395;SDS011;43222;52.912;6.940;2024-01-30T12:50:25;16.35;;;10.27;;
57395;SDS011;43222;52.912;6.940;2024-01-30T12:52:51;18.02;;;10.23;;
57395;SDS011;43222;52.912;6.940;2024-01-30T12:55:17;14.93;;;9.80;;
57395;SDS011;43222;52.912;6.940;2024-01-30T12:57:43;17.63;;;11.35;;
57395;SDS011;43222;52.912;6.940;2024-01-30T13:00:09;26.02;;;13.27;;
57395;SDS011;43222;52.912;6.940;2024-01-30T13:02:35;26.10;;;12.82;;
57395;SDS011;43222;52.912;6.940;2024-01-30T13:05:05;21.33;;;12.63;;
57395;SDS011;43222;52.912;6.940;2024-01-30T13:07:32;21.57;;;12.10;;
57395;SDS011;43222;52.912;6.940;2024-01-30T13:09:59;20.35;;;11.57;;
57395;SDS011;43222;52.912;6.940;2024-01-30T13:12:29;22.83;;;10.63;;
57395;SDS011;43222;52.912;6.940;2024-01-30T13:14:57;15.15;;;8.98;;
57395;SDS011;43222;52.912;6.940;2024-01-30T13:17:23;14.77;;;7.97;;
57395;SDS011;43222;52.912;6.940;2024-01-30T13:19:49;15.52;;;7.75;;
57395;SDS011;43222;52.912;6.940;2024-01-30T13:22:16;14.57;;;7.45;;
57395;SDS011;43222;52.912;6.940;2024-01-30T13:24:42;14.52;;;7.63;;
57395;SDS011;43222;52.912;6.940;2024-01-30T13:27:08;15.93;;;7.68;;
57395;SDS011;43222;52.912;6.940;2024-01-30T13:29:34;13.10;;;6.80;;
57395;SDS011;43222;52.912;6.940;2024-01-30T13:32:00;15.05;;;6.60;;
57395;SDS011;43222;52.912;6.940;2024-01-30T13:34:26;13.35;;;6.50;;
57395;SDS011;43222;52.912;6.940;2024-01-30T13:36:52;12.90;;;7.07;;
57395;SDS011;43222;52.912;6.940;2024-01-30T13:39:18;12.48;;;6.47;;
57395;SDS011;43222;52.912;6.940;2024-01-30T13:41:44;12.10;;;5.32;;
57395;SDS011;43222;52.912;6.940;2024-01-30T13:44:10;9.52;;;5.28;;
57395;SDS011;43222;52.912;6.940;2024-01-30T13:46:37;11.27;;;5.63;;
57395;SDS011;43222;52.912;6.940;2024-01-30T13:49:04;11.80;;;5.22;;
57395;SDS011;43222;52.912;6.940;2024-01-30T13:51:30;12.55;;;5.57;;
57395;SDS011;43222;52.912;6.940;2024-01-30T13:53:56;13.05;;;5.43;;
57395;SDS011;43222;52.912;6.940;2024-01-30T13:56:22;10.63;;;5.35;;
57395;SDS011;43222;52.912;6.940;2024-01-30T13:58:48;10.23;;;4.50;;
57395;SDS011;43222;52.912;6.940;2024-01-30T14:01:15;9.07;;;5.28;;
57395;SDS011;43222;52.912;6.940;2024-01-30T14:03:41;12.10;;;5.40;;
57395;SDS011;43222;52.912;6.940;2024-01-30T14:06:07;9.05;;;5.50;;
57395;SDS011;43222;52.912;6.940;2024-01-30T14:08:34;12.27;;;5.95;;
57395;SDS011;43222;52.912;6.940;2024-01-30T14:11:00;9.95;;;5.53;;
57395;SDS011;43222;52.912;6.940;2024-01-30T14:13:26;10.60;;;6.13;;
57395;SDS011;43222;52.912;6.940;2024-01-30T14:15:52;12.75;;;5.93;;
57395;SDS011;43222;52.912;6.940;2024-01-30T14:18:18;12.50;;;6.43;;
57395;SDS011;43222;52.912;6.940;2024-01-30T14:20:44;13.15;;;6.85;;